This is the latest recevied weather packets stored in our database for station/object KO4DYK. If no packets are shown the sender has not sent any weather packets the latest 10 day(s).
| Time | Temp. | Humidity | Pressure | Rain* | Wind** | Luminosity | Snow |
|---|---|---|---|---|---|---|---|
| 1777238907 | 30° C | 46% | 1014.8 hPa | 0 mm | - | 448 W/m² | - |
| 1777238604 | 29.44° C | 47% | 1014.5 hPa | 0 mm | - | 470 W/m² | - |
| 1777238301 | 29.44° C | 48% | 1014.6 hPa | 0 mm | - | 492 W/m² | - |
| 1777237998 | 30.56° C | 47% | 1014.8 hPa | 0 mm | - | 516 W/m² | - |
| 1777237694 | 31.11° C | 46% | 1015 hPa | 0 mm | - | 551 W/m² | - |
| 1777237391 | 30° C | 47% | 1015 hPa | 0 mm | - | 626 W/m² | - |
| 1777237089 | 30° C | 47% | 1015 hPa | 0 mm | - | 688 W/m² | - |
| 1777236786 | 28.89° C | 48% | 1014.8 hPa | 0 mm | - | 227 W/m² | - |
| 1777236485 | 28.89° C | 48% | 1015.1 hPa | 0 mm | - | 216 W/m² | - |
| 1777236182 | 30° C | 48% | 1014.7 hPa | 0 mm | - | 180 W/m² | - |
| 1777235877 | 30.56° C | 45% | 1014.9 hPa | 0 mm | - | 185 W/m² | - |
| 1777235575 | 31.67° C | 45% | 1015 hPa | 0 mm | - | 651 W/m² | - |
| 1777235271 | 30.56° C | 44% | 1014.8 hPa | 0 mm | - | 643 W/m² | - |
| 1777234967 | 30.56° C | 45% | 1015 hPa | 0 mm | - | 784 W/m² | - |
| 1777234663 | 30.56° C | 46% | 1014.7 hPa | 0 mm | - | 641 W/m² | - |
| 1777234358 | 31.67° C | 44% | 1014.9 hPa | 0 mm | - | 640 W/m² | - |
| 1777234055 | 32.22° C | 43% | 1015 hPa | 0 mm | - | 381 W/m² | - |
| 1777233751 | 31.67° C | 43% | 1015 hPa | 0 mm | - | 783 W/m² | - |
| 1777233447 | 31.11° C | 44% | 1015.1 hPa | 0 mm | - | 591 W/m² | - |
| 1777233146 | 31.11° C | 43% | 1015.1 hPa | 0 mm | - | 704 W/m² | - |
| 1777232843 | 30° C | 45% | 1015.2 hPa | 0 mm | - | 534 W/m² | - |
| 1777232541 | 30° C | 47% | 1015.3 hPa | 0 mm | - | 534 W/m² | - |
| 1777232240 | 31.67° C | 45% | 1015.3 hPa | 0 mm | - | 763 W/m² | - |
| 1777231935 | 31.67° C | 46% | 1015.3 hPa | 0 mm | - | 832 W/m² | - |
| 1777231632 | 31.11° C | 45% | 1015.2 hPa | 0 mm | - | 861 W/m² | - |
* Rain latest hour (hover to see other rain measurements)
** Current wind speed in m/s (hover to see current wind gust speed)